createdAt,value
2023-10-30T06:35:30.759Z,9.759374
2023-10-30T06:36:30.781Z,9.759374
2023-10-30T06:37:30.826Z,9.762806
2023-10-30T06:38:30.683Z,9.762921
2023-10-30T06:39:30.658Z,9.762794
2023-10-30T06:40:30.657Z,9.762770
2023-10-30T06:41:30.631Z,9.762688
2023-10-30T06:42:30.748Z,9.762724
2023-10-30T06:43:30.595Z,9.762751
2023-10-30T06:44:30.642Z,9.762775
2023-10-30T06:45:30.614Z,9.762780
2023-10-30T06:46:30.674Z,9.762800
2023-10-30T06:47:30.625Z,9.762800
2023-10-30T06:48:30.621Z,9.762800
2023-10-30T06:49:30.657Z,9.762696
2023-10-30T06:50:30.575Z,9.762771
2023-10-30T06:51:30.596Z,9.762753
2023-10-30T06:52:31.094Z,9.762779
2023-10-30T06:53:30.475Z,9.762823
2023-10-30T06:54:30.534Z,9.762731
2023-10-30T06:55:30.540Z,9.762704
2023-10-30T06:56:30.542Z,9.762690
2023-10-30T06:57:30.586Z,9.762643
2023-10-30T06:58:30.483Z,9.762754
2023-10-30T06:59:30.488Z,9.762780
2023-10-30T07:00:30.598Z,9.762784
2023-10-30T07:01:31.507Z,9.762736
2023-10-30T07:02:30.529Z,9.762666
2023-10-30T07:03:30.572Z,9.762673
2023-10-30T07:04:30.604Z,9.762690
2023-10-30T07:05:30.395Z,9.762721
2023-10-30T07:06:30.404Z,9.762739
2023-10-30T07:07:30.459Z,9.762725
2023-10-30T07:08:30.453Z,9.762776
2023-10-30T07:09:30.468Z,9.762678
2023-10-30T07:10:30.357Z,9.762756
2023-10-30T07:11:30.413Z,9.762742
2023-10-30T07:12:30.379Z,9.762692
2023-10-30T07:13:30.345Z,9.762659
2023-10-30T07:14:30.325Z,9.762662
2023-10-30T07:15:30.401Z,9.762607
2023-10-30T07:16:30.361Z,9.762652
2023-10-30T07:17:30.382Z,9.762742
2023-10-30T07:18:30.382Z,9.762379
2023-10-30T07:19:30.300Z,9.762718
2023-10-30T07:20:30.301Z,9.762629
2023-10-30T07:21:30.310Z,9.762245
2023-10-30T07:22:30.290Z,9.762337
2023-10-30T07:23:30.261Z,9.761788
2023-10-30T07:24:30.354Z,9.762505
2023-10-30T07:25:30.301Z,9.762706
2023-10-30T07:26:30.177Z,9.762449
2023-10-30T07:27:30.225Z,9.762850
2023-10-30T07:28:31.278Z,9.762928
2023-10-30T07:29:30.171Z,9.762928
2023-10-30T07:30:30.210Z,9.762928
2023-10-30T07:31:30.958Z,9.762928
2023-10-30T07:32:30.193Z,9.762928
2023-10-30T07:33:30.190Z,9.762928
2023-10-30T07:34:30.145Z,9.762928
2023-10-30T07:35:30.140Z,9.762928
2023-10-30T07:36:30.167Z,9.762928
2023-10-30T07:37:30.045Z,9.762928
2023-10-30T07:38:30.042Z,9.762928
2023-10-30T07:39:30.096Z,9.762928
2023-10-30T07:40:30.036Z,9.762928
2023-10-30T07:41:30.028Z,9.762928
2023-10-30T07:42:30.110Z,9.762928
2023-10-30T07:43:30.001Z,9.762928
2023-10-30T07:44:30.006Z,9.762928
2023-10-30T07:45:30.133Z,9.762928
2023-10-30T07:46:30.082Z,9.762928
2023-10-30T07:47:43.136Z,9.762928
2023-10-30T07:48:32.003Z,9.762928
2023-10-30T07:49:29.963Z,9.762928
2023-10-30T07:50:30.195Z,9.762928
2023-10-30T07:51:29.933Z,9.762928
2023-10-30T07:52:29.934Z,9.762928
2023-10-30T07:53:29.921Z,9.762928
2023-10-30T07:54:29.955Z,9.762928
2023-10-30T07:55:29.888Z,9.762928
2023-10-30T07:56:29.909Z,9.762928
2023-10-30T07:57:29.911Z,9.762928
2023-10-30T07:58:30.005Z,9.762928
2023-10-30T07:59:29.801Z,9.762928
2023-10-30T08:00:30.603Z,9.762928
2023-10-30T08:01:29.968Z,9.762928
2023-10-30T08:02:29.896Z,9.762928
2023-10-30T08:03:30.001Z,9.762928
2023-10-30T08:04:29.960Z,9.762928
2023-10-30T08:05:29.777Z,9.762928
2023-10-30T08:06:29.789Z,9.762928
2023-10-30T08:07:29.769Z,9.762928
2023-10-30T08:08:29.859Z,9.762928
2023-10-30T08:09:29.806Z,9.762928
2023-10-30T08:10:29.773Z,9.762928
2023-10-30T08:11:29.729Z,9.762928
2023-10-30T08:12:29.930Z,9.762928
2023-10-30T08:13:30.536Z,9.762928
2023-10-30T08:14:29.706Z,9.762928
2023-10-30T08:15:29.734Z,9.762928
2023-10-30T08:16:29.755Z,9.762928
2023-10-30T08:17:29.723Z,9.762928
2023-10-30T08:18:29.684Z,9.762928
2023-10-30T08:19:29.678Z,9.762928
2023-10-30T08:20:29.620Z,9.762928
2023-10-30T08:21:29.679Z,9.762928
2023-10-30T08:22:29.652Z,9.762928
2023-10-30T08:23:29.577Z,9.762928
2023-10-30T08:24:29.618Z,9.762928
2023-10-30T08:25:29.602Z,9.762928
2023-10-30T08:26:29.586Z,9.762928
2023-10-30T08:27:29.602Z,9.762928
2023-10-30T08:28:29.543Z,9.762928
2023-10-30T08:29:29.525Z,9.762928
2023-10-30T08:30:29.611Z,9.762928
2023-10-30T08:31:29.609Z,9.762928
2023-10-30T08:32:29.556Z,9.762928
2023-10-30T08:33:29.543Z,9.762928
2023-10-30T08:34:29.481Z,9.762928
2023-10-30T08:35:29.596Z,9.762928
2023-10-30T08:36:29.544Z,9.762928
2023-10-30T08:37:29.483Z,9.762928
2023-10-30T08:38:29.635Z,9.762928
2023-10-30T08:39:29.518Z,9.762928
2023-10-30T08:40:29.673Z,9.762928
2023-10-30T08:41:29.638Z,9.762928
2023-10-30T08:42:29.585Z,9.762928
2023-10-30T08:43:29.416Z,9.762928
2023-10-30T08:44:31.281Z,9.762928
2023-10-30T08:45:30.596Z,9.762928
2023-10-30T08:46:29.609Z,9.762928
2023-10-30T08:47:29.484Z,9.762928
